createdAt,value
2017-09-30T00:03:44.072Z,17
2017-09-30T00:13:43.807Z,16
2017-09-30T00:23:43.810Z,18
2017-09-30T00:33:44.398Z,16
2017-09-30T00:43:43.835Z,19
2017-09-30T00:53:43.830Z,17
2017-09-30T01:03:43.816Z,11
2017-09-30T01:13:43.826Z,16
2017-09-30T01:23:43.751Z,25
2017-09-30T01:33:43.850Z,16
2017-09-30T01:43:43.777Z,8
2017-09-30T01:53:43.891Z,6
2017-09-30T02:03:43.813Z,7
2017-09-30T02:13:43.812Z,7
2017-09-30T02:23:43.854Z,7
2017-09-30T02:33:43.774Z,8
2017-09-30T02:43:43.889Z,10
2017-09-30T02:53:43.797Z,12
2017-09-30T03:03:43.877Z,24
2017-09-30T03:13:43.809Z,19
2017-09-30T03:23:43.831Z,22
2017-09-30T03:33:43.872Z,15
2017-09-30T03:43:43.850Z,22
2017-09-30T03:53:43.915Z,17
2017-09-30T04:03:44.026Z,27
2017-09-30T04:13:43.912Z,26
2017-09-30T04:23:43.952Z,26
2017-09-30T04:33:43.937Z,23
2017-09-30T04:43:43.942Z,26
2017-09-30T04:53:43.983Z,24
2017-09-30T05:03:43.920Z,23
2017-09-30T05:13:44.005Z,23
2017-09-30T05:23:43.937Z,19
2017-09-30T05:33:43.949Z,16
2017-09-30T05:43:44.012Z,20
2017-09-30T05:53:44.011Z,15
2017-09-30T06:03:44.014Z,19
2017-09-30T06:13:44.081Z,14
2017-09-30T06:23:44.043Z,13
2017-09-30T06:33:44.051Z,14
2017-09-30T06:43:44.061Z,11
2017-09-30T06:53:44.106Z,12
2017-09-30T07:03:44.062Z,12
2017-09-30T07:13:44.074Z,12
2017-09-30T07:23:44.135Z,12
2017-09-30T07:33:44.043Z,11
2017-09-30T07:43:44.129Z,11
2017-09-30T07:53:44.048Z,12
2017-09-30T08:03:44.146Z,12
2017-09-30T08:13:44.068Z,12
2017-09-30T08:23:44.164Z,10
2017-09-30T08:33:44.125Z,11
2017-09-30T08:43:44.155Z,10
2017-09-30T08:53:44.443Z,10
2017-09-30T09:03:44.158Z,8
2017-09-30T09:13:44.135Z,9
2017-09-30T09:23:46.362Z,8
2017-09-30T09:33:44.249Z,6
2017-09-30T09:43:44.261Z,6
2017-09-30T09:53:44.192Z,7
2017-09-30T10:04:01.569Z,7
2017-09-30T10:13:44.449Z,7
2017-09-30T10:24:03.439Z,8
2017-09-30T10:35:08.332Z,7
2017-09-30T10:45:08.204Z,6
2017-09-30T10:54:38.917Z,6
2017-09-30T11:05:04.110Z,5
2017-09-30T11:15:08.888Z,5
2017-09-30T11:24:39.568Z,7
2017-09-30T11:35:07.685Z,6
2017-09-30T11:45:08.255Z,7
2017-09-30T11:55:10.106Z,6
2017-09-30T12:05:12.618Z,6
2017-09-30T12:15:08.812Z,7
2017-09-30T12:25:09.705Z,8
2017-09-30T12:34:51.793Z,2
2017-09-30T12:45:11.285Z,1
2017-09-30T12:55:10.767Z,2
2017-09-30T13:05:12.376Z,2
2017-09-30T13:15:09.464Z,3
2017-09-30T13:24:47.931Z,3
2017-09-30T13:35:09.627Z,6
2017-09-30T13:45:08.394Z,4
2017-09-30T13:55:03.609Z,4
2017-09-30T14:05:09.902Z,4
2017-09-30T14:15:08.940Z,4
2017-09-30T14:24:48.943Z,12
2017-09-30T14:35:08.045Z,2
2017-09-30T14:45:15.906Z,5
2017-09-30T14:55:09.362Z,7
2017-09-30T15:04:48.348Z,3
2017-09-30T15:14:53.832Z,4
2017-09-30T15:24:55.197Z,4
2017-09-30T15:35:00.328Z,5
2017-09-30T15:45:15.190Z,5
2017-09-30T15:54:57.255Z,4
2017-09-30T16:04:51.636Z,3
2017-09-30T16:14:39.738Z,2
2017-09-30T16:24:41.870Z,6
2017-09-30T16:35:06.886Z,3
2017-09-30T16:44:28.020Z,4
2017-09-30T16:55:11.053Z,5
2017-09-30T17:05:10.874Z,3
2017-09-30T17:14:58.316Z,5
2017-09-30T17:25:11.909Z,3
2017-09-30T17:35:10.804Z,5
2017-09-30T17:45:07.706Z,4
2017-09-30T17:55:11.210Z,4
2017-09-30T18:05:12.809Z,6
2017-09-30T18:15:07.085Z,5
2017-09-30T18:25:08.109Z,7
2017-09-30T18:34:51.475Z,7
2017-09-30T18:45:11.753Z,12
2017-09-30T18:55:07.255Z,9
2017-09-30T19:05:08.403Z,11
2017-09-30T19:15:13.139Z,12
2017-09-30T19:24:49.645Z,11
2017-09-30T19:35:13.197Z,13
2017-09-30T19:45:06.164Z,13
2017-09-30T19:55:10.254Z,15
2017-09-30T20:05:06.856Z,11
2017-09-30T20:14:39.936Z,14
2017-09-30T20:25:04.655Z,16
2017-09-30T20:35:07.228Z,15
2017-09-30T20:45:08.142Z,22
2017-09-30T20:55:12.782Z,14
2017-09-30T21:04:41.816Z,13
2017-09-30T21:15:05.855Z,15
2017-09-30T21:25:11.736Z,19
2017-09-30T21:35:16.100Z,15
2017-09-30T21:45:10.838Z,13
2017-09-30T21:54:54.087Z,11
2017-09-30T22:05:10.312Z,12
2017-09-30T22:15:04.393Z,12
2017-09-30T22:25:11.305Z,12
2017-09-30T22:35:08.013Z,15
2017-09-30T22:45:08.268Z,21
2017-09-30T22:55:07.921Z,16
2017-09-30T23:04:42.808Z,16
2017-09-30T23:13:44.317Z,15
2017-09-30T23:23:44.323Z,14
2017-09-30T23:33:44.357Z,13
2017-09-30T23:43:44.330Z,13
2017-09-30T23:53:44.370Z,11
